Time;durP1;ratioP1;P1;durP2;ratioP2;P2;SDS_P1;SDS_P2;PMS_P1;PMS_P2;Temp;Humidity;BMP_temperature;BMP_pressure;BME280_temperature;BME280_humidity;BME280_pressure;Samples;Min_cycle;Max_cycle;Signal;HPM_P1;HPM_P2
2024/01/14 00:01:17;;;;;;;;;;;;;;;25.39;38.41;94168.06;5019361;28;7333;-38
2024/01/14 00:03:43;;;;;;;;;;;;;;;25.38;37.86;94170.06;5026784;28;9336;-38
2024/01/14 00:06:49;;;;;;;;;;;;;;;25.40;38.17;94159.28;5026670;28;8785;-38
2024/01/14 00:09:29;;;;;;;;;;;;;;;25.40;37.64;94161.31;4949490;28;9044;-38
2024/01/14 00:11:56;;;;;;;;;;;;;;;25.40;38.29;94166.81;4955056;28;9049;-38
2024/01/14 00:14:24;;;;;;;;;;;;;;;25.39;37.42;94159.81;4954801;28;6970;-38
2024/01/14 00:16:59;;;;;;;;;;;;;;;25.37;38.12;94151.31;4954330;28;9155;-38
2024/01/14 00:19:56;;;;;;;;;;;;;;;25.39;37.79;94155.06;4954455;28;7322;-38
2024/01/14 00:22:32;;;;;;;;;;;;;;;25.38;37.50;94147.31;4941446;28;7273;-38
2024/01/14 00:25:19;;;;;;;;;;;;;;;25.39;38.09;94148.78;4950944;28;9102;-38
2024/01/14 00:27:46;;;;;;;;;;;;;;;25.37;37.64;94140.31;4954786;28;7247;-38
2024/01/14 00:30:28;;;;;;;;;;;;;;;25.38;38.43;94136.31;4954750;28;9569;-38
2024/01/14 00:32:55;;;;;;;;;;;;;;;25.38;38.33;94139.06;4954735;28;9213;-38
2024/01/14 00:36:15;;;;;;;;;;;;;;;25.39;38.41;94126.75;4954913;28;9013;-38
2024/01/14 00:38:41;;;;;;;;;;;;;;;25.36;37.83;94125.03;4916774;29;9117;-38
2024/01/14 00:41:07;;;;;;;;;;;;;;;25.37;38.41;94124.53;4915129;29;9219;-38
2024/01/14 00:43:33;;;;;;;;;;;;;;;25.33;38.25;94118.56;4945486;28;7059;-38
2024/01/14 00:46:02;;;;;;;;;;;;;;;25.36;37.80;94123.03;4986713;28;8156;-38
2024/01/14 00:48:32;;;;;;;;;;;;;;;25.35;37.83;94110.53;4970158;28;7506;-38
2024/01/14 00:51:00;;;;;;;;;;;;;;;25.34;38.18;94098.03;4964398;28;7244;-38
2024/01/14 00:53:28;;;;;;;;;;;;;;;25.34;37.55;94098.03;4977307;28;9204;-38
2024/01/14 00:55:58;;;;;;;;;;;;;;;25.35;38.38;94093.28;4974712;28;6999;-38
2024/01/14 00:58:26;;;;;;;;;;;;;;;25.32;37.80;94080.53;4968003;28;7489;-38
2024/01/14 01:00:53;;;;;;;;;;;;;;;25.36;37.51;94092.00;4963620;28;7929;-37
2024/01/14 01:03:19;;;;;;;;;;;;;;;25.35;37.73;94090.53;4962632;28;9048;-38
2024/01/14 01:05:45;;;;;;;;;;;;;;;25.33;37.79;94085.53;4976027;28;7235;-37
2024/01/14 01:08:19;;;;;;;;;;;;;;;25.34;37.97;94087.00;4965232;28;9105;-37
2024/01/14 01:11:14;;;;;;;;;;;;;;;25.35;37.67;94091.28;4985176;28;7082;-37
2024/01/14 01:13:48;;;;;;;;;;;;;;;25.34;38.23;94083.50;5020712;28;7029;-37
2024/01/14 01:16:17;;;;;;;;;;;;;;;25.34;37.56;94083.50;5050221;28;7245;-37
2024/01/14 01:18:49;;;;;;;;;;;;;;;25.34;37.65;94075.25;5028286;28;7254;-37
2024/01/14 01:21:36;;;;;;;;;;;;;;;25.32;37.81;94078.53;5040368;28;7335;-37
2024/01/14 01:24:08;;;;;;;;;;;;;;;25.32;38.00;94072.28;5022084;28;7255;-37
2024/01/14 01:26:44;;;;;;;;;;;;;;;25.32;37.41;94077.78;5044445;28;9224;-37
2024/01/14 01:29:16;;;;;;;;;;;;;;;25.34;37.29;94075.25;5041223;28;6990;-37
2024/01/14 01:31:52;;;;;;;;;;;;;;;25.31;37.94;94066.03;5040094;28;7266;-38
2024/01/14 01:34:32;;;;;;;;;;;;;;;25.33;37.48;94057.25;5044235;28;9538;-37
2024/01/14 01:36:58;;;;;;;;;;;;;;;25.30;38.01;94055.53;5044110;28;7503;-37
2024/01/14 01:39:24;;;;;;;;;;;;;;;25.34;38.08;94069.75;5017181;28;7082;-37
2024/01/14 01:41:51;;;;;;;;;;;;;;;25.34;37.29;94061.50;5041352;28;9440;-37
2024/01/14 01:44:17;;;;;;;;;;;;;;;25.33;37.95;94060.75;5037877;28;7617;-37
2024/01/14 01:46:57;;;;;;;;;;;;;;;25.33;37.23;94052.50;5036364;28;9190;-37
2024/01/14 01:49:27;;;;;;;;;;;;;;;25.34;37.24;94048.47;5032632;28;9056;-37
2024/01/14 01:52:06;;;;;;;;;;;;;;;25.33;37.60;94040.75;5040111;28;7255;-37
2024/01/14 01:54:41;;;;;;;;;;;;;;;25.34;37.63;94042.22;5045024;28;7220;-37
2024/01/14 01:57:07;;;;;;;;;;;;;;;25.31;37.73;94035.75;5018022;28;7050;-38
2024/01/14 01:59:35;;;;;;;;;;;;;;;25.31;37.38;94035.75;5035813;28;7185;-38
2024/01/14 02:02:04;;;;;;;;;;;;;;;25.32;38.15;94042.75;5018888;28;7259;-37
2024/01/14 02:04:32;;;;;;;;;;;;;;;25.32;37.49;94053.00;5034532;28;7048;-37
2024/01/14 02:07:27;;;;;;;;;;;;;;;25.32;38.02;94053.00;5032390;28;6981;-37
2024/01/14 02:10:08;;;;;;;;;;;;;;;25.32;37.63;94048.25;4940305;29;9231;-39
2024/01/14 02:13:03;;;;;;;;;;;;;;;25.32;37.00;94051.00;4920839;29;9320;-41
2024/01/14 02:15:44;;;;;;;;;;;;;;;25.30;37.58;94039.75;4941664;29;7199;-39
2024/01/14 02:18:22;;;;;;;;;;;;;;;25.32;37.12;94033.72;4945450;28;7278;-39
2024/01/14 02:20:58;;;;;;;;;;;;;;;25.31;37.50;94040.50;4930407;29;9188;-40
2024/01/14 02:23:50;;;;;;;;;;;;;;;25.31;37.17;94033.00;4943228;28;7221;-39
2024/01/14 02:26:16;;;;;;;;;;;;;;;25.30;36.88;94028.75;4944299;28;7228;-39
2024/01/14 02:28:43;;;;;;;;;;;;;;;25.31;37.58;94027.50;4939479;28;6955;-39
2024/01/14 02:31:24;;;;;;;;;;;;;;;25.31;37.76;94024.75;4908390;28;6860;-39
2024/01/14 02:34:10;;;;;;;;;;;;;;;25.31;37.11;94024.00;4946108;28;7518;-39
2024/01/14 02:36:49;;;;;;;;;;;;;;;25.32;37.44;94011.72;5000606;28;9148;-39
2024/01/14 02:39:19;;;;;;;;;;;;;;;25.29;37.79;94007.97;4989300;28;7440;-39
2024/01/14 02:41:45;;;;;;;;;;;;;;;25.31;37.27;93999.22;4998426;28;7014;-39
2024/01/14 02:44:11;;;;;;;;;;;;;;;25.29;37.31;93996.97;4999657;28;7101;-39
2024/01/14 02:47:04;;;;;;;;;;;;;;;25.33;37.21;93991.19;5002855;28;7201;-39
2024/01/14 02:49:45;;;;;;;;;;;;;;;25.29;37.43;93991.47;5043076;28;9052;-39
2024/01/14 02:52:33;;;;;;;;;;;;;;;25.34;36.93;93984.41;5045443;28;7180;-39
2024/01/14 02:55:00;;;;;;;;;;;;;;;25.34;37.33;93989.91;5049774;28;7013;-39
2024/01/14 02:57:55;;;;;;;;;;;;;;;25.33;37.14;93996.69;5039732;28;8818;-40
2024/01/14 03:00:36;;;;;;;;;;;;;;;25.30;37.53;93981.97;4958722;28;9101;-39
2024/01/14 03:03:14;;;;;;;;;;;;;;;25.31;37.50;93988.22;4959093;28;7486;-39
2024/01/14 03:05:50;;;;;;;;;;;;;;;25.28;37.02;93987.22;4964954;28;7257;-39
2024/01/14 03:08:30;;;;;;;;;;;;;;;25.29;37.86;93990.75;4967309;28;7002;-40
2024/01/14 03:11:13;;;;;;;;;;;;;;;25.27;37.52;93976.75;4971260;28;9311;-39
2024/01/14 03:13:39;;;;;;;;;;;;;;;25.28;37.42;93978.97;4968305;28;7258;-39
2024/01/14 03:16:05;;;;;;;;;;;;;;;25.29;37.71;93976.97;4968859;28;7165;-39
2024/01/14 03:18:31;;;;;;;;;;;;;;;25.28;37.56;93973.47;4955787;28;9035;-37
2024/01/14 03:21:08;;;;;;;;;;;;;;;25.29;37.27;93974.22;4958169;28;7485;-37
2024/01/14 03:23:36;;;;;;;;;;;;;;;25.28;37.40;93972.72;4972124;28;7252;-37
2024/01/14 03:26:14;;;;;;;;;;;;;;;25.29;37.92;93974.22;4955522;28;7237;-37
2024/01/14 03:29:13;;;;;;;;;;;;;;;25.30;37.02;93964.69;4956839;28;7175;-41
2024/01/14 03:31:55;;;;;;;;;;;;;;;25.29;37.43;93961.19;4905877;29;7284;-40
2024/01/14 03:34:23;;;;;;;;;;;;;;;25.27;37.80;93963.72;4914566;29;7320;-43
2024/01/14 03:36:49;;;;;;;;;;;;;;;25.31;37.53;93960.69;4924498;28;9283;-40
2024/01/14 03:39:17;;;;;;;;;;;;;;;25.28;37.74;93961.72;4954539;28;9176;-41
2024/01/14 03:41:43;;;;;;;;;;;;;;;25.29;37.68;93965.97;4956616;28;7958;-41
2024/01/14 03:44:11;;;;;;;;;;;;;;;25.27;37.71;93965.75;4962860;28;7439;-40
2024/01/14 03:46:38;;;;;;;;;;;;;;;25.28;37.40;93970.72;4955842;28;7239;-41
2024/01/14 03:49:14;;;;;;;;;;;;;;;25.28;37.40;93965.22;4948878;28;7046;-41
2024/01/14 03:51:49;;;;;;;;;;;;;;;25.29;37.63;93963.22;4946976;28;9051;-41
2024/01/14 03:54:26;;;;;;;;;;;;;;;25.30;37.02;93959.94;4961088;28;9104;-42
2024/01/14 03:56:52;;;;;;;;;;;;;;;25.30;37.34;93961.94;4943388;28;7321;-41
2024/01/14 03:59:45;;;;;;;;;;;;;;;25.30;37.84;93961.94;4942022;28;7132;-41
2024/01/14 04:03:01;;;;;;;;;;;;;;;25.29;37.04;93961.19;4964670;28;7437;-41
2024/01/14 04:05:48;;;;;;;;;;;;;;;25.27;37.03;93949.22;4897251;29;7188;-40
2024/01/14 04:08:15;;;;;;;;;;;;;;;25.29;37.75;93952.19;4918799;28;7464;-41
2024/01/14 04:10:58;;;;;;;;;;;;;;;25.29;37.79;93952.19;4959813;28;6931;-40
2024/01/14 04:13:27;;;;;;;;;;;;;;;25.27;37.89;93943.72;4954135;28;7194;-40
2024/01/14 04:15:56;;;;;;;;;;;;;;;25.30;37.14;93945.41;4958608;28;7909;-41
2024/01/14 04:18:24;;;;;;;;;;;;;;;25.30;37.35;93950.94;4960715;28;6985;-48
2024/01/14 04:21:01;;;;;;;;;;;;;;;25.30;36.77;93950.94;4948632;28;8528;-43
2024/01/14 04:23:40;;;;;;;;;;;;;;;25.29;36.94;93949.44;4938180;28;7066;-42
2024/01/14 04:26:07;;;;;;;;;;;;;;;25.29;37.21;93941.91;4938596;28;8795;-41
2024/01/14 04:29:02;;;;;;;;;;;;;;;25.29;37.83;93941.91;4939223;28;7263;-40
2024/01/14 04:31:48;;;;;;;;;;;;;;;25.30;37.76;93934.41;4928868;29;7059;-39
2024/01/14 04:34:34;;;;;;;;;;;;;;;25.31;37.14;93939.41;4911997;29;7289;-40
2024/01/14 04:37:06;;;;;;;;;;;;;;;25.31;37.10;93936.66;4907063;29;9377;-41
2024/01/14 04:39:32;;;;;;;;;;;;;;;25.30;37.20;93931.66;4925137;29;9103;-40
2024/01/14 04:41:58;;;;;;;;;;;;;;;25.32;37.03;93934.63;4966338;28;7194;-41
2024/01/14 04:44:24;;;;;;;;;;;;;;;25.29;36.94;93930.91;4980828;28;7158;-42
2024/01/14 04:47:12;;;;;;;;;;;;;;;25.30;37.57;93918.63;4962797;28;7270;-41
2024/01/14 04:49:47;;;;;;;;;;;;;;;25.30;37.66;93920.66;4982676;28;7256;-37
2024/01/14 04:52:13;;;;;;;;;;;;;;;25.29;37.10;93913.66;4960519;28;9016;-37
2024/01/14 04:54:49;;;;;;;;;;;;;;;25.27;37.69;93910.69;4968942;28;7253;-37
2024/01/14 04:57:16;;;;;;;;;;;;;;;25.30;37.53;93909.63;4990646;28;9110;-37
2024/01/14 04:59:42;;;;;;;;;;;;;;;25.28;37.35;93912.16;4973403;28;9605;-37
2024/01/14 05:02:09;;;;;;;;;;;;;;;25.28;37.42;93910.16;4979169;28;7438;-37
2024/01/14 05:04:37;;;;;;;;;;;;;;;25.29;37.17;93910.91;4960599;28;9083;-37
2024/01/14 05:07:29;;;;;;;;;;;;;;;25.29;37.59;93906.13;4982032;28;9405;-37
2024/01/14 05:10:06;;;;;;;;;;;;;;;25.28;37.54;93906.66;5042670;28;7175;-37
2024/01/14 05:13:09;;;;;;;;;;;;;;;25.30;36.74;93898.63;5030050;28;9001;-37
2024/01/14 05:15:35;;;;;;;;;;;;;;;25.29;37.05;93897.16;5037247;28;7208;-38
2024/01/14 05:18:09;;;;;;;;;;;;;;;25.30;37.91;93902.13;5018723;28;7809;-37
2024/01/14 05:20:44;;;;;;;;;;;;;;;25.30;37.73;93904.13;5024652;28;7031;-37
2024/01/14 05:23:09;;;;;;;;;;;;;;;25.28;37.28;93901.91;5034007;28;7131;-37
2024/01/14 05:25:36;;;;;;;;;;;;;;;25.28;37.37;93898.41;5036743;28;9064;-37
2024/01/14 05:28:32;;;;;;;;;;;;;;;25.29;36.71;93902.66;5025947;28;6955;-37
2024/01/14 05:31:18;;;;;;;;;;;;;;;25.30;37.27;93898.63;5038270;28;7010;-37
2024/01/14 05:33:54;;;;;;;;;;;;;;;25.30;37.46;93893.13;5048053;28;9118;-37
2024/01/14 05:36:21;;;;;;;;;;;;;;;25.27;37.31;93883.16;5003170;28;7200;-37
2024/01/14 05:38:47;;;;;;;;;;;;;;;25.27;37.46;93883.16;5026985;28;9162;-38
2024/01/14 05:41:13;;;;;;;;;;;;;;;25.29;37.31;93884.09;5046523;28;9096;-37
2024/01/14 05:43:42;;;;;;;;;;;;;;;25.29;36.85;93884.09;5047136;28;8054;-37
2024/01/14 05:46:09;;;;;;;;;;;;;;;25.29;36.76;93875.13;5026248;28;7005;-37
2024/01/14 05:48:39;;;;;;;;;;;;;;;25.29;37.47;93877.88;5044801;28;9058;-37
2024/01/14 05:51:05;;;;;;;;;;;;;;;25.28;37.31;93874.38;5025749;28;9084;-38
2024/01/14 05:53:31;;;;;;;;;;;;;;;25.28;37.36;93870.88;5034936;28;9032;-37
2024/01/14 05:55:57;;;;;;;;;;;;;;;25.30;37.37;93871.09;5045082;28;7181;-38
2024/01/14 05:59:00;;;;;;;;;;;;;;;25.32;37.58;93880.31;5043164;28;7069;-37
2024/01/14 06:01:33;;;;;;;;;;;;;;;25.29;37.43;93875.84;4933984;28;7166;-38
2024/01/14 06:04:00;;;;;;;;;;;;;;;25.28;37.27;93868.88;4956724;28;7366;-38
2024/01/14 06:06:43;;;;;;;;;;;;;;;25.28;37.35;93871.63;4935724;28;7243;-38
2024/01/14 06:09:17;;;;;;;;;;;;;;;25.27;37.19;93878.38;4937960;28;7164;-38
2024/01/14 06:12:08;;;;;;;;;;;;;;;25.29;37.51;93881.34;4928013;28;7599;-38
2024/01/14 06:14:55;;;;;;;;;;;;;;;25.28;37.24;93876.38;4948240;28;9258;-38
2024/01/14 06:18:02;;;;;;;;;;;;;;;25.30;37.03;93876.59;4934825;29;9301;-38
2024/01/14 06:20:28;;;;;;;;;;;;;;;25.28;37.43;93874.38;4941177;28;9123;-38
2024/01/14 06:22:54;;;;;;;;;;;;;;;25.29;37.26;93870.34;4939106;28;7241;-38
2024/01/14 06:25:20;;;;;;;;;;;;;;;25.29;36.96;93870.34;4941663;28;7223;-38
2024/01/14 06:27:48;;;;;;;;;;;;;;;25.31;37.11;93870.59;4934943;28;9444;-38
2024/01/14 06:30:16;;;;;;;;;;;;;;;25.32;37.26;93861.06;4939942;28;7629;-38
2024/01/14 06:32:42;;;;;;;;;;;;;;;25.30;37.69;93862.84;4927354;29;7256;-38
2024/01/14 06:35:08;;;;;;;;;;;;;;;25.31;37.11;93865.09;4942344;28;7017;-38
2024/01/14 06:37:34;;;;;;;;;;;;;;;25.29;37.39;93858.63;5032142;28;9083;-38
2024/01/14 06:40:03;;;;;;;;;;;;;;;25.30;37.63;93860.09;5043099;28;7328;-38
2024/01/14 06:42:29;;;;;;;;;;;;;;;25.30;37.37;93862.84;5031028;28;7867;-38
2024/01/14 06:44:55;;;;;;;;;;;;;;;25.31;38.05;93872.59;5046055;28;7121;-38
2024/01/14 06:47:32;;;;;;;;;;;;;;;25.32;37.27;93869.31;5039848;28;7066;-38
2024/01/14 06:50:25;;;;;;;;;;;;;;;25.37;38.19;93865.75;5019393;28;8878;-38
2024/01/14 06:52:59;;;;;;;;;;;;;;;25.37;36.84;93867.75;4978017;28;9150;-38
2024/01/14 06:55:46;;;;;;;;;;;;;;;25.36;36.93;93866.25;4987117;28;7115;-38
2024/01/14 06:58:13;;;;;;;;;;;;;;;25.35;36.69;93862.78;4989421;28;7259;-38
2024/01/14 07:01:08;;;;;;;;;;;;;;;25.34;37.39;93866.03;4965404;28;9396;-38
2024/01/14 07:03:47;;;;;;;;;;;;;;;25.33;36.78;93850.78;4902076;29;7169;-38
2024/01/14 07:06:13;;;;;;;;;;;;;;;25.31;37.28;93845.06;4903234;29;9022;-38
2024/01/14 07:08:40;;;;;;;;;;;;;;;25.33;37.64;93848.03;4903351;29;7803;-38
2024/01/14 07:11:05;;;;;;;;;;;;;;;25.32;36.90;93843.78;4888759;29;9008;-38
2024/01/14 07:13:31;;;;;;;;;;;;;;;25.33;37.11;93829.53;4889124;29;7227;-38
2024/01/14 07:15:59;;;;;;;;;;;;;;;25.31;37.46;93826.56;4903064;29;9377;-38
2024/01/14 07:18:25;;;;;;;;;;;;;;;25.32;37.35;93828.03;4912366;29;7214;-47
2024/01/14 07:20:54;;;;;;;;;;;;;;;25.34;37.61;93830.25;4900539;29;9154;-57
2024/01/14 07:23:37;;;;;;;;;;;;;;;25.31;37.30;93823.06;4900330;29;6982;-57
2024/01/14 07:26:15;;;;;;;;;;;;;;;25.32;37.40;93827.28;4901005;29;6869;-57
2024/01/14 07:28:41;;;;;;;;;;;;;;;25.32;36.83;93833.53;4912206;28;7145;-57
2024/01/14 07:31:07;;;;;;;;;;;;;;;25.32;37.82;93836.28;4937455;28;8872;-56
2024/01/14 07:33:33;;;;;;;;;;;;;;;25.33;37.71;93831.53;4939836;28;7327;-57
2024/01/14 07:36:00;;;;;;;;;;;;;;;25.35;37.22;93829.00;4940522;28;8399;-57
2024/01/14 07:38:26;;;;;;;;;;;;;;;25.34;37.89;93822.75;4935604;28;9067;-57
2024/01/14 07:40:54;;;;;;;;;;;;;;;25.32;37.59;93824.53;5004833;28;7241;-56
2024/01/14 07:43:20;;;;;;;;;;;;;;;25.35;37.46;93827.00;5042803;28;7028;-57
2024/01/14 07:45:47;;;;;;;;;;;;;;;25.37;37.58;93827.22;5033615;28;9755;-56
2024/01/14 07:48:17;;;;;;;;;;;;;;;25.37;37.33;93826.47;5037903;28;9565;-57
2024/01/14 07:50:45;;;;;;;;;;;;;;;25.39;37.42;93834.94;5034299;28;9006;-57
2024/01/14 07:53:13;;;;;;;;;;;;;;;25.38;38.11;93844.47;5033895;28;7400;-58
2024/01/14 07:55:40;;;;;;;;;;;;;;;25.40;38.11;93836.44;5015371;28;7808;-57
2024/01/14 07:58:13;;;;;;;;;;;;;;;25.38;37.13;93841.72;5031299;28;6997;-57
2024/01/14 08:00:39;;;;;;;;;;;;;;;25.42;38.02;93833.94;5015850;28;8792;-57
2024/01/14 08:03:05;;;;;;;;;;;;;;;25.48;37.55;93845.59;5031271;28;7457;-57
2024/01/14 08:05:42;;;;;;;;;;;;;;;25.50;37.11;93845.81;5039843;28;6981;-57
2024/01/14 08:08:09;;;;;;;;;;;;;;;25.52;37.73;93846.03;5035465;28;9456;-57
2024/01/14 08:10:39;;;;;;;;;;;;;;;25.53;36.76;93844.78;5040714;28;9121;-58
2024/01/14 08:13:28;;;;;;;;;;;;;;;25.53;36.75;93836.53;5021453;28;7289;-58
2024/01/14 08:16:15;;;;;;;;;;;;;;;25.49;37.50;93844.31;5032843;28;8232;-57
2024/01/14 08:18:52;;;;;;;;;;;;;;;25.48;36.93;93839.34;5035586;28;6988;-58
2024/01/14 08:21:20;;;;;;;;;;;;;;;25.46;37.97;93839.13;5033670;28;7247;-57
2024/01/14 08:23:48;;;;;;;;;;;;;;;25.43;37.28;93847.16;5027014;28;9123;-57
2024/01/14 08:26:19;;;;;;;;;;;;;;;25.39;38.01;93848.69;5018901;28;8763;-57
2024/01/14 08:28:44;;;;;;;;;;;;;;;25.50;37.24;93851.31;5017876;28;8069;-55
2024/01/14 08:31:30;;;;;;;;;;;;;;;25.51;37.41;93855.59;5021922;28;7331;-57
2024/01/14 08:34:09;;;;;;;;;;;;;;;25.55;37.46;93847.00;5036270;28;7249;-57
2024/01/14 08:36:41;;;;;;;;;;;;;;;25.56;37.55;93849.22;5017814;28;9511;-57
2024/01/14 08:39:07;;;;;;;;;;;;;;;25.59;37.56;93842.69;5025291;28;7527;-57
2024/01/14 08:41:33;;;;;;;;;;;;;;;25.60;37.24;93854.44;5032694;28;7053;-58
2024/01/14 08:44:04;;;;;;;;;;;;;;;25.54;36.90;93849.00;5037052;28;9141;-57
2024/01/14 08:46:30;;;;;;;;;;;;;;;25.52;37.62;93853.56;5013589;28;7170;-56
2024/01/14 08:48:56;;;;;;;;;;;;;;;25.49;36.71;93860.84;5025221;28;7636;-57
2024/01/14 08:51:27;;;;;;;;;;;;;;;25.49;37.80;93860.13;5028391;28;7982;-58
2024/01/14 08:54:08;;;;;;;;;;;;;;;25.46;37.34;93847.38;5020641;28;9075;-58
2024/01/14 08:56:40;;;;;;;;;;;;;;;25.45;37.34;93854.19;5025981;28;6932;-57
2024/01/14 08:59:34;;;;;;;;;;;;;;;25.45;38.00;93841.13;5016702;28;7476;-57
2024/01/14 09:02:04;;;;;;;;;;;;;;;25.41;38.22;93838.66;4971745;28;7321;-54
2024/01/14 09:04:33;;;;;;;;;;;;;;;25.45;38.02;93843.88;4972798;28;7203;-56
2024/01/14 09:07:01;;;;;;;;;;;;;;;25.49;38.10;93835.34;4960564;28;7816;-58
2024/01/14 09:09:28;;;;;;;;;;;;;;;25.50;37.66;93836.81;4976551;28;7408;-57
2024/01/14 09:11:56;;;;;;;;;;;;;;;25.52;38.11;93831.53;4975956;28;7252;-52
2024/01/14 09:14:34;;;;;;;;;;;;;;;25.50;38.17;93839.56;4985003;28;8214;-55
2024/01/14 09:17:10;;;;;;;;;;;;;;;25.53;37.38;93839.28;4963166;28;8726;-55
2024/01/14 09:19:36;;;;;;;;;;;;;;;25.54;37.93;93835.25;4976380;28;9032;-54
2024/01/14 09:22:12;;;;;;;;;;;;;;;25.59;37.78;93822.66;4989781;28;6986;-55
2024/01/14 09:25:23;;;;;;;;;;;;;;;25.56;37.67;93821.69;4967084;28;8933;-55
2024/01/14 09:28:03;;;;;;;;;;;;;;;25.58;37.43;93827.41;4895881;29;7073;-57
2024/01/14 09:30:30;;;;;;;;;;;;;;;25.54;37.81;93817.97;4901762;29;7207;-57
2024/01/14 09:33:07;;;;;;;;;;;;;;;25.56;38.40;93829.19;4911213;29;7243;-57
2024/01/14 09:36:05;;;;;;;;;;;;;;;25.57;37.47;93828.69;4916146;29;9485;-57
2024/01/14 09:38:56;;;;;;;;;;;;;;;25.60;37.50;93833.13;4884240;29;9041;-43
2024/01/14 09:42:13;;;;;;;;;;;;;;;25.63;38.25;93831.34;4931633;29;7414;-40
2024/01/14 09:44:39;;;;;;;;;;;;;;;25.66;37.39;93824.81;4825746;29;9228;-40
2024/01/14 09:47:08;;;;;;;;;;;;;;;25.67;38.00;93829.03;4806559;29;8350;-41
2024/01/14 09:49:37;;;;;;;;;;;;;;;25.66;37.18;93825.56;4833126;29;7918;-40
2024/01/14 09:52:04;;;;;;;;;;;;;;;25.67;37.40;93832.53;4821786;29;7155;-40
2024/01/14 09:54:32;;;;;;;;;;;;;;;25.69;37.84;93835.50;4829842;29;7616;-40
2024/01/14 09:57:11;;;;;;;;;;;;;;;25.66;37.84;93824.81;4818266;29;6981;-40
2024/01/14 09:59:42;;;;;;;;;;;;;;;25.63;37.89;93812.81;4823000;29;6982;-42
2024/01/14 10:02:10;;;;;;;;;;;;;;;25.70;37.51;93820.47;4830747;29;7119;-41
2024/01/14 10:04:40;;;;;;;;;;;;;;;25.66;37.32;93811.03;4821057;29;8776;-40
2024/01/14 10:07:54;;;;;;;;;;;;;;;25.68;37.29;93806.50;4867527;29;7061;-41
2024/01/14 10:10:31;;;;;;;;;;;;;;;25.71;37.34;93790.94;4874849;29;6994;-40
2024/01/14 10:13:17;;;;;;;;;;;;;;;25.68;37.43;93784.47;4859662;29;9071;-41
2024/01/14 10:15:43;;;;;;;;;;;;;;;25.71;37.22;93782.66;4977852;28;9560;-40
2024/01/14 10:18:19;;;;;;;;;;;;;;;25.71;37.44;93769.63;5046168;28;9368;-40
2024/01/14 10:20:46;;;;;;;;;;;;;;;25.71;37.77;93768.91;5025775;28;7172;-42
2024/01/14 10:23:42;;;;;;;;;;;;;;;25.70;37.50;93770.91;5039874;28;9234;-42
2024/01/14 10:26:29;;;;;;;;;;;;;;;25.74;37.89;93771.34;4938932;29;8376;-43
2024/01/14 10:29:00;;;;;;;;;;;;;;;25.78;38.02;93776.53;4950027;29;7934;-41
2024/01/14 10:31:33;;;;;;;;;;;;;;;25.78;37.22;93766.25;4937320;29;7236;-42
2024/01/14 10:34:05;;;;;;;;;;;;;;;25.77;37.71;93755.78;4936406;29;7265;-40
2024/01/14 10:36:32;;;;;;;;;;;;;;;25.79;37.83;93753.97;4925090;29;9138;-40
2024/01/14 10:39:12;;;;;;;;;;;;;;;25.79;37.27;93750.47;4950159;28;7179;-40
2024/01/14 10:41:39;;;;;;;;;;;;;;;25.79;37.00;93747.72;4931426;28;6997;-42
2024/01/14 10:44:12;;;;;;;;;;;;;;;25.80;37.72;93757.44;4905902;28;7887;-40
2024/01/14 10:47:10;;;;;;;;;;;;;;;25.79;37.16;93751.22;4932438;28;7208;-42
2024/01/14 10:49:43;;;;;;;;;;;;;;;25.79;36.99;93747.72;4908195;29;7259;-41
2024/01/14 10:52:11;;;;;;;;;;;;;;;25.75;37.13;93744.53;4906927;29;7068;-39
2024/01/14 10:54:55;;;;;;;;;;;;;;;25.78;37.82;93741.47;4900207;29;7246;-41
2024/01/14 10:57:37;;;;;;;;;;;;;;;25.81;37.29;93739.66;4892036;29;7879;-39
2024/01/14 11:00:09;;;;;;;;;;;;;;;25.78;37.53;93719.41;4898681;29;7251;-41
2024/01/14 11:02:39;;;;;;;;;;;;;;;25.78;37.62;93713.91;4947484;28;7173;-41
2024/01/14 11:05:38;;;;;;;;;;;;;;;25.78;37.11;93711.16;4974129;28;9422;-39
2024/01/14 11:08:06;;;;;;;;;;;;;;;25.78;36.87;93716.66;4960822;28;7199;-40
2024/01/14 11:11:11;;;;;;;;;;;;;;;25.81;37.01;93709.38;4966147;28;7050;-41
2024/01/14 11:14:21;;;;;;;;;;;;;;;25.81;37.14;93695.59;4960454;28;7884;-41
2024/01/14 11:17:01;;;;;;;;;;;;;;;25.79;37.14;93693.38;4954142;28;7095;-40
2024/01/14 11:19:43;;;;;;;;;;;;;;;25.80;37.29;93692.09;4952541;28;7074;-40
2024/01/14 11:22:19;;;;;;;;;;;;;;;25.77;38.04;93676.63;4953502;28;8498;-41
2024/01/14 11:24:59;;;;;;;;;;;;;;;25.74;37.88;93672.16;4956342;28;9084;-40
2024/01/14 11:27:53;;;;;;;;;;;;;;;25.72;37.85;93663.69;4991576;28;7138;-40
2024/01/14 11:31:01;;;;;;;;;;;;;;;25.73;39.03;93664.44;4958744;28;7241;-40
2024/01/14 11:33:46;;;;;;;;;;;;;;;25.73;38.07;93661.69;4967125;28;8675;-40
2024/01/14 11:36:56;;;;;;;;;;;;;;;25.75;37.94;93657.13;4961278;28;7007;-40
2024/01/14 11:39:22;;;;;;;;;;;;;;;25.76;38.39;93647.59;4982196;28;9106;-40
2024/01/14 11:41:48;;;;;;;;;;;;;;;25.76;38.43;93642.09;4966695;28;7077;-40
2024/01/14 11:44:29;;;;;;;;;;;;;;;25.77;38.33;93637.31;5009891;28;9039;-42
2024/01/14 11:47:07;;;;;;;;;;;;;;;25.76;38.77;93628.31;5034680;28;7700;-41
2024/01/14 11:49:34;;;;;;;;;;;;;;;25.76;38.49;93622.06;5010887;28;9063;-41
2024/01/14 11:52:02;;;;;;;;;;;;;;;25.77;38.94;93618.78;5032149;28;9109;-41
2024/01/14 11:54:32;;;;;;;;;;;;;;;25.78;38.54;93616.75;5020345;28;7255;-40
2024/01/14 11:57:21;;;;;;;;;;;;;;;25.77;38.45;93616.03;5030246;28;7219;-41
2024/01/14 11:59:52;;;;;;;;;;;;;;;25.79;39.04;93613.50;5038775;28;7059;-58
2024/01/14 12:02:20;;;;;;;;;;;;;;;25.78;39.33;93600.97;5034920;28;7333;-59
2024/01/14 12:04:55;;;;;;;;;;;;;;;25.79;38.75;93596.97;5033209;28;9567;-58
2024/01/14 12:07:33;;;;;;;;;;;;;;;25.81;39.16;93588.91;5016397;28;7138;-58
2024/01/14 12:10:28;;;;;;;;;;;;;;;25.86;38.83;93588.03;5018244;28;7483;-58
2024/01/14 12:12:56;;;;;;;;;;;;;;;25.84;38.95;93570.53;4925618;28;8680;-59
2024/01/14 12:15:24;;;;;;;;;;;;;;;25.80;39.24;93559.13;4938848;28;7356;-58
2024/01/14 12:18:01;;;;;;;;;;;;;;;25.84;38.72;93562.28;4935315;28;7356;-59
2024/01/14 12:20:47;;;;;;;;;;;;;;;25.81;38.48;93561.34;4942734;28;9938;-59
2024/01/14 12:23:31;;;;;;;;;;;;;;;25.83;38.85;93558.81;4945204;28;9396;-58
2024/01/14 12:26:04;;;;;;;;;;;;;;;25.87;39.03;93566.75;4935805;28;6866;-58
2024/01/14 12:28:31;;;;;;;;;;;;;;;25.87;38.75;93556.47;4946177;28;9274;-57
2024/01/14 12:31:34;;;;;;;;;;;;;;;25.90;38.66;93557.41;4924039;28;7320;-58
2024/01/14 12:34:33;;;;;;;;;;;;;;;25.84;39.04;93543.75;4891940;29;6939;-58
2024/01/14 12:37:12;;;;;;;;;;;;;;;25.80;38.60;93539.84;4858317;29;7512;-57
2024/01/14 12:39:50;;;;;;;;;;;;;;;25.79;39.00;93533.59;4857795;29;9785;-58
2024/01/14 12:42:16;;;;;;;;;;;;;;;25.82;38.88;93526.25;4844101;29;9204;-58
2024/01/14 12:44:43;;;;;;;;;;;;;;;25.88;38.88;93524.88;4841183;29;7200;-58
2024/01/14 12:47:12;;;;;;;;;;;;;;;25.89;38.62;93517.34;4857152;29;9252;-58
2024/01/14 12:49:43;;;;;;;;;;;;;;;25.89;38.50;93518.09;4866177;29;9276;-58
2024/01/14 12:52:16;;;;;;;;;;;;;;;25.90;38.90;93514.06;4900782;29;9300;-58
2024/01/14 12:54:56;;;;;;;;;;;;;;;25.94;38.12;93506.22;4899633;29;7057;-57
2024/01/14 12:57:31;;;;;;;;;;;;;;;25.92;37.37;93499.78;4903412;29;7222;-57
2024/01/14 13:00:02;;;;;;;;;;;;;;;25.88;37.87;93500.09;4899657;29;7166;-57
2024/01/14 13:03:20;;;;;;;;;;;;;;;25.88;38.35;93504.88;4920236;29;7255;-57
2024/01/14 13:05:55;;;;;;;;;;;;;;;25.88;38.31;93493.84;4909552;29;9232;-57
2024/01/14 13:08:21;;;;;;;;;;;;;;;25.89;37.60;93489.81;4944095;28;7121;-38
2024/01/14 13:10:48;;;;;;;;;;;;;;;25.87;37.74;93487.59;4953174;28;7079;-39
2024/01/14 13:13:40;;;;;;;;;;;;;;;25.82;38.04;93479.44;4987257;28;7082;-39
2024/01/14 13:16:37;;;;;;;;;;;;;;;25.83;37.54;93475.41;5026668;28;9247;-39
2024/01/14 13:19:10;;;;;;;;;;;;;;;25.89;37.81;93479.53;4992939;28;7371;-39
2024/01/14 13:21:49;;;;;;;;;;;;;;;25.92;37.93;93470.22;4961554;28;7063;-39
2024/01/14 13:24:16;;;;;;;;;;;;;;;25.92;37.32;93470.22;4986110;28;9047;-39
2024/01/14 13:26:42;;;;;;;;;;;;;;;25.95;37.40;93460.84;4998495;28;9199;-39
2024/01/14 13:29:10;;;;;;;;;;;;;;;25.98;37.65;93459.81;4970731;28;7072;-40
2024/01/14 13:31:43;;;;;;;;;;;;;;;25.98;37.76;93451.53;4987773;28;7210;-39
2024/01/14 13:34:10;;;;;;;;;;;;;;;26.03;37.82;93456.16;4989576;28;7044;-39
2024/01/14 13:36:46;;;;;;;;;;;;;;;26.02;37.66;93449.19;4985454;28;7247;-38
2024/01/14 13:39:14;;;;;;;;;;;;;;;25.96;38.08;93442.31;4988477;28;7304;-38
2024/01/14 13:41:40;;;;;;;;;;;;;;;25.96;38.62;93432.03;4986161;28;7130;-38